Time;durP1;ratioP1;P1;durP2;ratioP2;P2;SDS_P1;SDS_P2;PMS_P1;PMS_P2;Temp;Humidity;BMP_temperature;BMP_pressure;BME280_temperature;BME280_humidity;BME280_pressure;Samples;Min_cycle;Max_cycle;Signal;HPM_P1;HPM_P2
2022/08/19 00:02:04;;;;;;;13.82;7.95;;;;;;;16.90;100.00;101505.53;7403170;19;20010;-78
2022/08/19 00:04:46;;;;;;;17.50;8.43;;;;;;;16.88;100.00;101502.03;7404859;19;20030;-76
2022/08/19 00:07:16;;;;;;;14.82;8.27;;;;;;;16.86;100.00;101490.53;7401811;19;20047;-77
2022/08/19 00:09:49;;;;;;;17.15;8.25;;;;;;;16.84;100.00;101492.31;7402300;19;20371;-78
2022/08/19 00:12:21;;;;;;;15.45;8.27;;;;;;;16.82;100.00;101491.44;7402903;19;20029;-78
2022/08/19 00:14:54;;;;;;;17.50;8.00;;;;;;;16.80;100.00;101498.50;7403082;19;20031;-79
2022/08/19 00:17:23;;;;;;;19.00;9.02;;;;;;;16.77;100.00;101506.44;7397556;19;20055;-78
2022/08/19 00:19:56;;;;;;;14.65;8.27;;;;;;;16.74;100.00;101509.09;7398102;19;21213;-77
2022/08/19 00:22:30;;;;;;;17.33;8.45;;;;;;;16.71;100.00;101499.41;7400450;19;20018;-80
2022/08/19 00:25:10;;;;;;;16.43;7.47;;;;;;;16.70;100.00;101504.69;7403696;19;20074;-78
2022/08/19 00:27:40;;;;;;;18.02;8.80;;;;;;;16.73;100.00;101515.28;7403655;19;21942;-78
2022/08/19 00:30:12;;;;;;;17.27;8.65;;;;;;;16.73;100.00;101517.94;7398565;19;20015;-78
2022/08/19 00:32:42;;;;;;;16.17;8.85;;;;;;;16.75;100.00;101517.06;7391836;19;20011;-79
2022/08/19 00:35:12;;;;;;;16.42;8.32;;;;;;;16.76;100.00;101518.81;7395372;19;20043;-77
2022/08/19 00:37:43;;;;;;;16.20;8.05;;;;;;;16.77;100.00;101515.28;7398362;19;20011;-77
2022/08/19 00:40:19;;;;;;;19.58;9.07;;;;;;;16.77;100.00;101517.03;7397075;19;20086;-77
2022/08/19 00:42:53;;;;;;;14.25;8.32;;;;;;;16.76;100.00;101520.59;7401610;19;20023;-76
2022/08/19 00:45:30;;;;;;;18.77;9.65;;;;;;;16.76;100.00;101516.16;7394333;19;20015;-77
2022/08/19 00:48:03;;;;;;;18.83;9.80;;;;;;;16.71;100.00;101506.47;7392217;19;20010;-78
2022/08/19 00:50:45;;;;;;;17.48;8.95;;;;;;;16.67;100.00;101509.13;7395416;19;20471;-77
2022/08/19 00:53:24;;;;;;;18.73;9.65;;;;;;;16.64;100.00;101519.72;7397496;19;20014;-78
2022/08/19 00:55:57;;;;;;;;;;;;;;;16.61;100.00;101519.72;7397653;19;20039;-77
2022/08/19 00:58:39;;;;;;;16.80;8.95;;;;;;;16.58;100.00;101524.13;7403997;19;19910;-77
2022/08/19 01:01:09;;;;;;;16.08;8.85;;;;;;;16.55;100.00;101517.06;7398900;19;20043;-77
2022/08/19 01:03:42;;;;;;;16.20;8.60;;;;;;;16.54;100.00;101517.94;7396829;19;20013;-77
2022/08/19 01:06:30;;;;;;;15.80;8.60;;;;;;;16.51;100.00;101517.94;7400641;19;20034;-78
2022/08/19 01:09:04;;;;;;;20.35;9.00;;;;;;;16.49;100.00;101521.47;7401947;19;20010;-78
2022/08/19 01:11:45;;;;;;;16.48;8.85;;;;;;;16.46;100.00;101517.06;7414098;19;20309;-75
2022/08/19 01:14:21;;;;;;;14.40;7.97;;;;;;;16.41;100.00;101521.47;7401827;19;20018;-79
2022/08/19 01:16:54;;;;;;;15.57;8.27;;;;;;;16.44;100.00;101525.91;7402006;19;20047;-77
2022/08/19 01:19:39;;;;;;;16.80;8.98;;;;;;;16.46;100.00;101525.00;7401942;19;20017;-79
2022/08/19 01:22:17;;;;;;;15.70;8.35;;;;;;;16.44;100.00;101529.44;7400150;19;20027;-78
2022/08/19 01:25:04;;;;;;;17.83;9.10;;;;;;;16.42;100.00;101523.25;7400380;19;20054;-78
2022/08/19 01:27:45;;;;;;;17.13;9.02;;;;;;;16.41;100.00;101517.94;7402422;19;20010;-77
2022/08/19 01:30:25;;;;;;;18.02;9.57;;;;;;;16.41;100.00;101515.31;7395388;19;20487;-78
2022/08/19 01:32:58;;;;;;;18.20;8.75;;;;;;;16.39;100.00;101523.25;7384879;19;20020;-79
2022/08/19 01:35:35;;;;;;;18.48;9.40;;;;;;;16.38;100.00;101515.31;7396895;19;20011;-79
2022/08/19 01:38:12;;;;;;;15.68;9.93;;;;;;;16.38;100.00;101518.84;7392848;19;20018;-77
2022/08/19 01:40:48;;;;;;;15.57;7.95;;;;;;;16.38;100.00;101521.47;7390285;19;20007;-79
2022/08/19 01:43:22;;;;;;;19.98;8.82;;;;;;;16.35;100.00;101526.78;7398804;19;20011;-78
2022/08/19 01:45:53;;;;;;;17.17;8.50;;;;;;;16.35;100.00;101524.13;7397429;19;20014;-78
2022/08/19 01:48:23;;;;;;;16.35;8.70;;;;;;;16.37;100.00;101522.34;7399058;19;20006;-77
2022/08/19 01:51:01;;;;;;;17.27;9.32;;;;;;;16.35;100.00;101516.19;7397359;19;20014;-78
2022/08/19 01:53:36;;;;;;;21.08;11.80;;;;;;;16.38;100.00;101518.84;7387106;19;20310;-78
2022/08/19 01:56:13;;;;;;;19.40;9.93;;;;;;;16.39;100.00;101517.94;7392707;19;20014;-79
2022/08/19 01:58:49;;;;;;;22.08;11.77;;;;;;;16.42;100.00;101507.38;7396850;19;20017;-78
2022/08/19 02:01:25;;;;;;;24.15;11.32;;;;;;;16.46;100.00;101505.59;7398557;19;20014;-77
2022/08/19 02:04:00;;;;;;;24.48;13.70;;;;;;;16.44;100.00;101502.94;7400084;19;20467;-78
2022/08/19 02:06:32;;;;;;;25.92;13.55;;;;;;;16.47;100.00;101507.34;7392362;19;20023;-78
2022/08/19 02:09:06;;;;;;;;;;;;;;;16.46;100.00;101511.78;7401832;19;20146;-78
2022/08/19 02:11:44;;;;;;;26.17;13.18;;;;;;;16.44;100.00;101512.66;7403525;19;19963;-76
2022/08/19 02:14:19;;;;;;;23.50;12.48;;;;;;;16.41;100.00;101516.19;7400565;19;20040;-78
2022/08/19 02:16:49;;;;;;;26.30;13.60;;;;;;;16.41;100.00;101520.59;7402863;19;20007;-79
2022/08/19 02:19:22;;;;;;;24.90;12.90;;;;;;;16.40;100.00;101522.38;7396512;19;20044;-78
2022/08/19 02:21:52;;;;;;;29.77;16.20;;;;;;;16.42;100.00;101514.41;7403180;19;20010;-77
2022/08/19 02:24:22;;;;;;;35.17;16.85;;;;;;;16.45;100.00;101512.66;7405889;19;20417;-77
2022/08/19 02:26:58;;;;;;;38.65;19.88;;;;;;;16.45;100.00;101510.00;7403001;19;20081;-78
2022/08/19 02:29:30;;;;;;;32.35;16.67;;;;;;;16.41;100.00;101510.88;7401695;19;20039;-78
2022/08/19 02:32:00;;;;;;;33.67;16.25;;;;;;;16.43;100.00;101514.41;7399633;19;20017;-77
2022/08/19 02:34:30;;;;;;;38.08;16.98;;;;;;;16.43;100.00;101508.25;7402146;19;20011;-78
2022/08/19 02:37:00;;;;;;;39.17;18.52;;;;;;;16.42;100.00;101510.00;7404151;19;20036;-76
2022/08/19 02:39:30;;;;;;;40.05;18.83;;;;;;;16.40;100.00;101509.13;7395247;19;20456;-76
2022/08/19 02:42:09;;;;;;;34.00;16.67;;;;;;;16.35;100.00;101508.25;7397062;19;20014;-79
2022/08/19 02:44:43;;;;;;;38.67;18.73;;;;;;;16.32;100.00;101505.59;7399366;19;20011;-79
2022/08/19 02:47:18;;;;;;;36.78;16.48;;;;;;;16.26;100.00;101501.19;7399137;19;20019;-77
2022/08/19 02:49:49;;;;;;;38.53;18.85;;;;;;;16.27;100.00;101496.78;7407113;19;20007;-78
2022/08/19 02:52:19;;;;;;;39.50;18.33;;;;;;;16.25;100.00;101491.47;7391743;19;20025;-78
2022/08/19 02:54:49;;;;;;;37.85;18.42;;;;;;;16.23;100.00;101490.59;7392950;19;20454;-77
2022/08/19 02:57:21;;;;;;;45.47;19.52;;;;;;;16.22;100.00;101485.31;7393449;19;20239;-77
2022/08/19 02:59:53;;;;;;;39.78;20.42;;;;;;;16.23;100.00;101484.41;7390276;19;20011;-79
2022/08/19 03:02:30;;;;;;;47.07;20.83;;;;;;;16.21;100.00;101480.88;7393570;19;20630;-78
2022/08/19 03:05:11;;;;;;;41.72;19.42;;;;;;;16.17;100.00;101480.00;7397969;19;20011;-79
2022/08/19 03:07:43;;;;;;;39.42;17.38;;;;;;;16.16;100.00;101488.81;7394051;19;20011;-77
2022/08/19 03:10:15;;;;;;;41.50;19.77;;;;;;;16.14;100.00;101485.28;7393547;19;20066;-77
2022/08/19 03:12:48;;;;;;;45.95;20.15;;;;;;;16.11;100.00;101477.34;7392313;19;20078;-77
2022/08/19 03:15:21;;;;;;;48.45;21.55;;;;;;;16.11;100.00;101473.81;7390628;19;20027;-78
2022/08/19 03:17:51;;;;;;;52.92;23.58;;;;;;;16.15;100.00;101475.59;7391564;19;20006;-78
2022/08/19 03:20:22;;;;;;;48.90;23.02;;;;;;;16.13;100.00;101480.00;7391141;19;20031;-78
2022/08/19 03:22:51;;;;;;;48.88;22.55;;;;;;;16.12;100.00;101478.25;7387397;19;20010;-77
2022/08/19 03:25:23;;;;;;;54.45;25.17;;;;;;;16.12;100.00;101472.94;7388089;19;20421;-79
2022/08/19 03:27:56;;;;;;;54.53;23.55;;;;;;;16.12;100.00;101470.28;7391288;19;20015;-79
2022/08/19 03:30:31;;;;;;;52.60;22.58;;;;;;;16.12;100.00;101468.53;7392425;19;20007;-78
2022/08/19 03:33:05;;;;;;;50.72;21.95;;;;;;;16.10;100.00;101461.47;7386909;19;20027;-78
2022/08/19 03:35:40;;;;;;;54.47;24.88;;;;;;;16.07;100.00;101475.59;7389785;19;20114;-80
2022/08/19 03:38:14;;;;;;;64.03;25.38;;;;;;;16.05;100.00;101473.81;7388397;19;20040;-77
2022/08/19 03:40:46;;;;;;;56.78;24.63;;;;;;;16.01;100.00;101479.09;7386767;19;20015;-79
2022/08/19 03:43:19;;;;;;;58.50;25.60;;;;;;;16.03;100.00;101477.34;7386082;19;20385;-79
2022/08/19 03:45:51;;;;;;;67.05;28.27;;;;;;;16.10;100.00;101478.22;7395666;19;20011;-79
2022/08/19 03:48:21;;;;;;;62.80;26.58;;;;;;;16.13;100.00;101466.78;7394149;19;20014;-78
2022/08/19 03:51:05;;;;;;;74.68;29.77;;;;;;;16.18;100.00;101472.94;7390340;19;20384;-78
2022/08/19 03:53:39;;;;;;;69.13;28.38;;;;;;;16.19;100.00;101482.66;7392127;19;20043;-79
2022/08/19 03:56:12;;;;;;;63.33;28.35;;;;;;;16.16;100.00;101477.34;7391272;19;20501;-78
2022/08/19 03:58:45;;;;;;;74.88;29.38;;;;;;;16.23;100.00;101472.06;7395926;19;20039;-78
2022/08/19 04:01:20;;;;;;;69.83;26.87;;;;;;;16.22;100.00;101478.25;7402840;19;20003;-78
2022/08/19 04:04:04;;;;;;;70.95;28.02;;;;;;;16.26;100.00;101484.41;7402936;19;20032;-78
2022/08/19 04:06:41;;;;;;;80.90;30.80;;;;;;;16.28;100.00;101487.94;7391011;19;20516;-78
2022/08/19 04:09:19;;;;;;;83.30;31.77;;;;;;;16.28;100.00;101493.25;7397092;19;20003;-80
2022/08/19 04:11:53;;;;;;;77.07;27.25;;;;;;;16.23;100.00;101495.00;7391467;19;20011;-78
2022/08/19 04:14:30;;;;;;;75.95;31.13;;;;;;;16.22;100.00;101494.13;7394800;19;20044;-78
2022/08/19 04:17:06;;;;;;;86.75;33.13;;;;;;;16.26;100.00;101500.28;7394578;19;20505;-79
2022/08/19 04:19:39;;;;;;;89.85;35.47;;;;;;;16.24;100.00;101494.13;7394395;19;20439;-79
2022/08/19 04:22:11;;;;;;;91.22;36.13;;;;;;;16.32;100.00;101502.94;7406482;19;20018;-79
2022/08/19 04:24:41;;;;;;;98.45;34.97;;;;;;;16.35;100.00;101490.59;7407258;19;20026;-77
2022/08/19 04:27:15;;;;;;;94.53;35.38;;;;;;;16.42;100.00;101494.13;7407848;19;20014;-78
2022/08/19 04:29:49;;;;;;;95.15;35.50;;;;;;;16.50;100.00;101500.31;7405623;19;20039;-77
2022/08/19 04:32:19;;;;;;;98.13;37.83;;;;;;;16.63;100.00;101499.41;7405236;19;20018;-78
2022/08/19 04:34:51;;;;;;;102.10;37.60;;;;;;;16.74;100.00;101496.75;7402144;19;20046;-79
2022/08/19 04:37:36;;;;;;;106.75;37.45;;;;;;;16.87;100.00;101494.94;7403019;19;20087;-78
2022/08/19 04:42:53;;;;;;;92.90;36.80;;;;;;;17.05;100.00;101496.69;7397677;19;20015;-78
2022/08/19 04:45:34;;;;;;;92.20;37.53;;;;;;;17.08;100.00;101492.25;7397254;19;20011;-79
2022/08/19 04:48:14;;;;;;;106.55;36.65;;;;;;;17.13;100.00;101487.81;7389840;19;20415;-78
2022/08/19 04:50:57;;;;;;;99.50;38.30;;;;;;;17.17;100.00;101489.56;7397100;19;20014;-78
2022/08/19 04:53:32;;;;;;;103.70;37.00;;;;;;;17.22;100.00;101494.84;7396522;19;20320;-78
2022/08/19 04:56:11;;;;;;;95.57;35.17;;;;;;;17.24;100.00;101499.28;7394326;19;20014;-78
2022/08/19 04:58:44;;;;;;;105.30;37.53;;;;;;;17.31;100.00;101498.34;7394826;19;20010;-80
2022/08/19 05:01:21;;;;;;;103.70;36.97;;;;;;;17.35;100.00;101501.00;7394939;19;20027;-79
2022/08/19 05:03:53;;;;;;;97.90;35.33;;;;;;;17.37;100.00;101497.44;7394418;19;20019;-79
2022/08/19 05:06:28;;;;;;;102.00;33.80;;;;;;;17.41;100.00;101506.28;7399937;19;20010;-79
2022/08/19 05:09:07;;;;;;;88.45;32.83;;;;;;;17.44;100.00;101503.59;7399761;19;20007;-80
2022/08/19 05:11:41;;;;;;;97.25;35.42;;;;;;;17.49;100.00;101502.69;7399669;19;20425;-81
2022/08/19 05:14:13;;;;;;;97.55;34.42;;;;;;;17.54;100.00;101511.53;7395601;19;20466;-78
2022/08/19 05:16:47;;;;;;;108.53;36.07;;;;;;;17.61;100.00;101509.72;7394631;19;20047;-79
2022/08/19 05:24:51;;;;;;;88.13;31.40;;;;;;;17.78;100.00;101505.22;7392277;19;20015;-80
2022/08/19 05:27:41;;;;;;;93.90;34.38;;;;;;;17.83;100.00;101505.19;7393573;19;20006;-78
2022/08/19 05:30:16;;;;;;;86.93;31.65;;;;;;;17.89;100.00;101502.50;7395185;19;20028;-78
2022/08/19 05:32:49;;;;;;;86.10;32.95;;;;;;;17.93;100.00;101497.16;7388361;19;20051;-79
2022/08/19 05:35:23;;;;;;;89.43;34.25;;;;;;;17.96;100.00;101496.25;7395736;19;20018;-77
2022/08/19 05:37:53;;;;;;;87.90;34.17;;;;;;;18.01;100.00;101489.13;7380885;19;20024;-75
2022/08/19 05:40:28;;;;;;;92.60;35.60;;;;;;;18.04;100.00;101490.88;7376512;19;20483;-75
2022/08/19 05:43:05;;;;;;;86.03;34.08;;;;;;;18.09;100.00;101495.28;7386208;19;20015;-79
2022/08/19 05:45:41;;;;;;;79.80;34.38;;;;;;;18.18;100.00;101499.63;7392026;19;20018;-79
2022/08/19 05:48:20;;;;;;;101.97;37.33;;;;;;;18.22;100.00;101496.06;7388389;19;20534;-79
2022/08/19 05:50:51;;;;;;;86.65;35.50;;;;;;;18.25;100.00;101496.03;7396936;19;20039;-77
2022/08/19 05:53:22;;;;;;;90.07;33.70;;;;;;;18.29;100.00;101500.44;7395668;19;20048;-79
2022/08/19 05:55:52;;;;;;;72.75;32.30;;;;;;;18.36;100.00;101494.19;7391053;19;20007;-80
2022/08/19 05:58:25;;;;;;;76.03;34.10;;;;;;;18.50;100.00;101500.25;7399269;19;20018;-78
2022/08/19 06:01:04;;;;;;;77.05;31.88;;;;;;;18.55;100.00;101494.91;7399380;19;20030;-79
2022/08/19 06:03:43;;;;;;;74.55;31.23;;;;;;;18.61;100.00;101495.75;7410393;19;20498;-81
2022/08/19 06:06:16;;;;;;;71.78;29.73;;;;;;;18.73;100.00;101492.06;7408058;19;20018;-77
2022/08/19 06:08:50;;;;;;;85.05;34.35;;;;;;;18.84;100.00;101486.66;7408999;19;20037;-79
2022/08/19 06:11:24;;;;;;;73.00;31.13;;;;;;;18.97;100.00;101496.25;7408764;19;20017;-80
2022/08/19 06:13:57;;;;;;;;;;;;;;;19.08;100.00;101489.03;7399383;19;20011;-77
2022/08/19 06:16:35;;;;;;;64.45;29.48;;;;;;;19.28;100.00;101495.00;7400945;19;19907;-80
2022/08/19 06:19:12;;;;;;;71.65;30.95;;;;;;;19.43;100.00;101501.03;7390275;19;20017;-81
2022/08/19 06:21:44;;;;;;;69.22;32.05;;;;;;;19.68;100.00;101505.16;7391546;19;20011;-75
2022/08/19 06:24:17;;;;;;;69.30;30.38;;;;;;;19.82;100.00;101503.16;7403920;19;20011;-78
2022/08/19 06:26:50;;;;;;;61.95;29.00;;;;;;;19.67;100.00;101503.41;7396920;19;20325;-78
2022/08/19 06:29:24;;;;;;;66.95;28.83;;;;;;;19.65;100.00;101499.00;7392994;19;20035;-78
2022/08/19 06:31:57;;;;;;;59.95;28.75;;;;;;;19.57;100.00;101492.00;7386916;19;20523;-77
2022/08/19 06:34:40;;;;;;;62.60;28.52;;;;;;;19.62;100.00;101499.06;7394632;19;20019;-77
2022/08/19 06:37:11;;;;;;;60.45;29.17;;;;;;;19.71;100.00;101496.25;7395796;19;20044;-78
2022/08/19 06:39:46;;;;;;;60.78;28.13;;;;;;;19.74;100.00;101494.44;7399911;19;20018;-81
2022/08/19 06:42:20;;;;;;;60.53;29.38;;;;;;;19.68;100.00;101499.84;7402544;19;20012;-80
2022/08/19 06:44:54;;;;;;;63.40;29.88;;;;;;;19.76;100.00;101503.25;7404738;19;20015;-77
2022/08/19 06:47:27;;;;;;;65.10;29.70;;;;;;;20.05;100.00;101504.59;7404443;19;20011;-79
2022/08/19 06:50:06;;;;;;;62.60;29.77;;;;;;;19.89;100.00;101491.53;7414123;19;20759;-80
2022/08/19 06:52:40;;;;;;;62.20;28.15;;;;;;;19.88;100.00;101503.06;7409999;19;20348;-82
2022/08/19 06:55:23;;;;;;;59.35;27.02;;;;;;;19.90;100.00;101501.28;7408361;19;20032;-89
2022/08/19 06:58:04;;;;;;;;;;;;;;;19.79;100.00;101497.88;7407104;19;20086;-78
2022/08/19 07:00:38;;;;;;;57.28;26.50;;;;;;;19.86;100.00;101507.53;7397721;19;19927;-78
2022/08/19 07:03:09;;;;;;;60.28;28.85;;;;;;;19.81;100.00;101497.88;7397417;19;20070;-78
2022/08/19 07:05:48;;;;;;;69.00;32.42;;;;;;;19.81;100.00;101503.19;7393963;19;20093;-80
2022/08/19 07:08:20;;;;;;;59.75;29.42;;;;;;;19.81;100.00;101503.19;7403208;19;20071;-81
2022/08/19 07:10:50;;;;;;;60.65;28.50;;;;;;;19.85;100.00;101512.88;7413184;19;20010;-81
2022/08/19 07:13:21;;;;;;;66.53;30.80;;;;;;;19.93;100.00;101522.53;7415364;19;20015;-79
2022/08/19 07:15:53;;;;;;;56.28;27.17;;;;;;;20.16;100.00;101513.31;7406760;19;20015;-80
2022/08/19 07:21:15;;;;;;;52.83;26.90;;;;;;;20.22;100.00;101514.09;7405423;19;20496;-85
2022/08/19 07:23:47;;;;;;;52.92;26.15;;;;;;;20.36;100.00;101521.88;7413063;19;20014;-88
2022/08/19 07:26:32;;;;;;;56.67;26.60;;;;;;;20.42;100.00;101526.25;7424521;19;20054;-86
2022/08/19 07:29:23;;;;;;;51.00;24.58;;;;;;;20.27;100.00;101530.00;7422780;19;20039;-84
2022/08/19 07:32:06;;;;;;;47.53;24.08;;;;;;;20.35;100.00;101517.44;7413053;19;20007;-82
2022/08/19 07:34:48;;;;;;;53.55;25.95;;;;;;;20.58;100.00;101516.22;7396172;19;20469;-79
2022/08/19 07:37:28;;;;;;;44.75;22.05;;;;;;;20.56;100.00;101518.91;7406907;19;20014;-79
2022/08/19 07:40:10;;;;;;;46.28;23.08;;;;;;;20.64;100.00;101521.44;7395920;19;20017;-81
2022/08/19 07:42:41;;;;;;;46.15;21.67;;;;;;;20.64;100.00;101532.09;7398574;19;20005;-80
2022/08/19 07:45:15;;;;;;;43.20;21.83;;;;;;;20.55;100.00;101531.34;7394476;19;20007;-75
2022/08/19 07:47:46;;;;;;;43.20;21.02;;;;;;;20.39;100.00;101524.53;7381535;19;20027;-74
2022/08/19 07:50:24;;;;;;;42.22;21.23;;;;;;;20.48;100.00;101526.16;7385489;19;20044;-76
2022/08/19 07:52:57;;;;;;;35.38;18.45;;;;;;;20.52;100.00;101526.06;7380069;19;20010;-78
2022/08/19 07:55:36;;;;;;;43.80;20.05;;;;;;;20.51;100.00;101526.09;7393869;19;20007;-76
2022/08/19 07:58:14;;;;;;;40.85;21.73;;;;;;;20.57;100.00;101531.31;7390616;19;20009;-77
2022/08/19 08:00:46;;;;;;;38.63;21.65;;;;;;;20.75;100.00;101533.69;7396577;19;20018;-76
2022/08/19 08:09:10;;;;;;;44.13;20.67;;;;;;;20.67;100.00;101537.38;7395342;19;20397;-75
2022/08/19 08:09:19;;;;;;;41.10;20.88;;;;;;;20.73;100.00;101540.81;7377987;19;20018;-75
2022/08/19 08:11:53;;;;;;;39.20;19.23;;;;;;;20.78;100.00;101543.41;7380543;19;20078;-75
2022/08/19 08:14:26;;;;;;;38.65;18.80;;;;;;;20.84;100.00;101543.25;7382460;19;20276;-75
2022/08/19 08:16:59;;;;;;;37.15;18.45;;;;;;;20.91;100.00;101542.25;7384363;19;20014;-74
2022/08/19 08:19:35;;;;;;;36.10;18.38;;;;;;;20.89;100.00;101542.28;7382448;19;20018;-77
2022/08/19 08:22:09;;;;;;;36.30;19.33;;;;;;;21.13;100.00;101542.72;7384369;19;20015;-76
2022/08/19 08:24:48;;;;;;;34.75;17.70;;;;;;;21.26;100.00;101540.75;7387076;19;20014;-76
2022/08/19 08:27:18;;;;;;;32.88;18.48;;;;;;;21.39;100.00;101547.59;7383502;19;20105;-75
2022/08/19 08:29:55;;;;;;;30.85;17.70;;;;;;;21.40;100.00;101552.00;7384201;19;20007;-75
2022/08/19 08:32:27;;;;;;;30.80;17.30;;;;;;;21.46;100.00;101542.09;7385456;19;20642;-78
2022/08/19 08:35:01;;;;;;;28.52;15.55;;;;;;;21.76;100.00;101545.03;7406386;19;20010;-79
2022/08/19 08:37:34;;;;;;;25.73;15.90;;;;;;;22.02;100.00;101556.00;7394855;19;20026;-77
2022/08/19 08:40:14;;;;;;;31.52;15.55;;;;;;;21.96;100.00;101557.91;7406855;19;20019;-81
2022/08/19 08:43:00;;;;;;;29.05;14.48;;;;;;;22.05;100.00;101552.41;7417076;19;20010;-84
2022/08/19 08:45:35;;;;;;;28.27;14.57;;;;;;;22.26;100.00;101551.03;7408703;19;20471;-77
2022/08/19 08:48:20;;;;;;;27.20;13.20;;;;;;;22.74;100.00;101549.81;7394480;19;20124;-77
2022/08/19 08:50:57;;;;;;;26.40;14.10;;;;;;;23.02;100.00;101551.75;7392235;19;20010;-79
2022/08/19 08:53:35;;;;;;;21.98;13.27;;;;;;;23.42;100.00;101555.09;7393848;19;20023;-79
2022/08/19 08:56:14;;;;;;;21.35;12.88;;;;;;;23.48;100.00;101554.91;7403541;19;20023;-78
2022/08/19 08:58:54;;;;;;;23.13;13.25;;;;;;;23.86;100.00;101554.75;7406336;19;20011;-79
2022/08/19 09:01:24;;;;;;;23.27;12.20;;;;;;;24.03;100.00;101555.94;7405217;19;20010;-80
2022/08/19 09:04:00;;;;;;;21.50;11.63;;;;;;;24.45;100.00;101551.03;7397695;19;20011;-77
2022/08/19 09:06:46;;;;;;;22.08;11.68;;;;;;;24.61;100.00;101550.53;7403037;19;20015;-79
2022/08/19 09:09:21;;;;;;;21.42;11.80;;;;;;;24.59;100.00;101547.91;7406269;19;20368;-80
2022/08/19 09:12:12;;;;;;;21.92;10.98;;;;;;;25.12;100.00;101552.34;7405460;19;20007;-77
2022/08/19 09:14:51;;;;;;;20.52;10.68;;;;;;;25.22;100.00;101551.09;7407838;19;20440;-77
2022/08/19 09:17:30;;;;;;;20.55;11.77;;;;;;;24.66;100.00;101553.94;7398536;19;20011;-80
2022/08/19 09:20:08;;;;;;;21.27;11.35;;;;;;;25.25;100.00;101548.28;7397591;19;20002;-78
2022/08/19 09:22:38;;;;;;;23.17;11.07;;;;;;;25.01;100.00;101550.91;7403511;19;20018;-77
2022/08/19 09:25:12;;;;;;;17.13;8.93;;;;;;;24.78;100.00;101559.75;7407429;19;20006;-77
2022/08/19 09:27:45;;;;;;;16.67;9.18;;;;;;;24.47;100.00;101563.53;7402979;19;20020;-79
2022/08/19 09:30:21;;;;;;;20.02;9.70;;;;;;;24.43;100.00;101568.09;7406006;19;20013;-80
2022/08/19 09:32:54;;;;;;;21.52;9.00;;;;;;;24.18;100.00;101567.97;7408575;19;20114;-78
2022/08/19 09:35:38;;;;;;;13.95;8.73;;;;;;;24.02;100.00;101567.59;7410999;19;20050;-76
2022/08/19 09:38:24;;;;;;;18.08;9.63;;;;;;;23.76;100.00;101581.81;7404592;19;20014;-79
2022/08/19 09:41:05;;;;;;;15.52;8.27;;;;;;;23.70;100.00;101570.38;7399950;19;20035;-79
2022/08/19 09:43:38;;;;;;;16.90;9.30;;;;;;;23.61;100.00;101582.25;7409709;19;20038;-78
2022/08/19 09:46:17;;;;;;;18.00;9.18;;;;;;;23.40;100.00;101577.47;7407335;19;20031;-79
2022/08/19 09:48:51;;;;;;;17.42;7.80;;;;;;;23.51;100.00;101574.50;7396444;19;20035;-76
2022/08/19 09:51:25;;;;;;;15.18;8.70;;;;;;;23.46;100.00;101580.84;7394669;19;20027;-78
2022/08/19 09:53:57;;;;;;;19.45;9.48;;;;;;;23.41;100.00;101582.78;7390131;19;20035;-75
2022/08/19 09:56:34;;;;;;;14.88;8.18;;;;;;;23.39;100.00;101573.91;7394539;19;20031;-76
2022/08/19 09:59:09;;;;;;;14.57;8.15;;;;;;;23.61;100.00;101579.56;7392874;19;20050;-76
2022/08/19 10:01:39;;;;;;;12.68;6.97;;;;;;;23.70;100.00;101579.31;7389592;19;20033;-76
2022/08/19 10:04:10;;;;;;;11.52;6.55;;;;;;;24.01;100.00;101578.34;7386505;19;20017;-75
2022/08/19 10:06:51;;;;;;;12.32;6.63;;;;;;;24.17;100.00;101587.66;7389811;19;20433;-75
2022/08/19 10:09:24;;;;;;;9.68;5.57;;;;;;;24.39;100.00;101578.06;7383816;19;20699;-76
2022/08/19 10:12:15;;;;;;;10.10;5.72;;;;;;;24.58;100.00;101575.66;7380268;19;20390;-77
2022/08/19 10:14:53;;;;;;;14.60;6.10;;;;;;;25.08;100.00;101573.94;7382520;19;20078;-76
2022/08/19 10:17:25;;;;;;;15.07;7.50;;;;;;;24.80;100.00;101573.13;7381607;19;20038;-75
2022/08/19 10:20:11;;;;;;;16.15;9.45;;;;;;;24.95;100.00;101571.72;7382427;19;20010;-80
2022/08/19 10:22:43;;;;;;;13.48;8.32;;;;;;;25.32;100.00;101565.94;7397455;19;20047;-83
2022/08/19 10:25:17;;;;;;;13.27;7.70;;;;;;;25.51;100.00;101571.50;7401355;19;20027;-80
2022/08/19 10:27:48;;;;;;;14.55;8.63;;;;;;;25.37;100.00;101563.94;7407268;19;20010;-78
2022/08/19 10:30:23;;;;;;;11.48;5.72;;;;;;;25.69;100.00;101560.09;7411434;19;20006;-80
2022/08/19 10:32:57;;;;;;;14.25;6.43;;;;;;;25.33;100.00;101559.63;7411187;19;20019;-80
2022/08/19 10:35:36;;;;;;;9.18;4.60;;;;;;;25.12;100.00;101568.44;7403702;19;20066;-83
2022/08/19 10:38:26;;;;;;;12.95;5.47;;;;;;;25.18;100.00;101569.09;7384640;19;20011;-77
2022/08/19 10:41:00;;;;;;;8.30;4.45;;;;;;;25.31;100.00;101558.81;7384549;19;20492;-78
2022/08/19 10:43:41;;;;;;;9.25;4.60;;;;;;;25.15;100.00;101568.34;7383800;19;20341;-78
2022/08/19 10:46:17;;;;;;;8.85;4.80;;;;;;;25.33;100.00;101562.31;7379288;19;20010;-74
2022/08/19 10:48:47;;;;;;;10.50;4.70;;;;;;;25.38;100.00;101563.00;7377333;19;20046;-74
2022/08/19 10:54:09;;;;;;;6.72;3.80;;;;;;;25.08;100.00;101573.94;7368624;19;20023;-75
2022/08/19 10:56:51;;;;;;;8.43;4.05;;;;;;;24.65;100.00;101571.84;7379978;19;20014;-75
2022/08/19 10:59:27;;;;;;;7.88;3.85;;;;;;;24.95;100.00;101577.97;7386422;19;20019;-74
2022/08/19 11:02:09;;;;;;;9.05;3.60;;;;;;;25.01;100.00;101567.03;7378435;19;20002;-74
2022/08/19 11:04:39;;;;;;;6.88;2.97;;;;;;;25.07;100.00;101572.16;7381719;19;20525;-76
2022/08/19 11:07:11;;;;;;;8.00;3.05;;;;;;;24.39;100.00;101570.00;7386332;19;20017;-76
2022/08/19 11:09:46;;;;;;;7.57;4.30;;;;;;;24.62;100.00;101568.38;7388790;19;20011;-77
2022/08/19 11:12:19;;;;;;;9.27;3.20;;;;;;;24.35;100.00;101563.00;7392434;19;20039;-78
2022/08/19 11:14:49;;;;;;;;;;;;;;;23.99;100.00;101572.16;7404462;19;20014;-78
2022/08/19 11:17:23;;;;;;;9.75;4.00;;;;;;;24.07;100.00;101570.13;7398226;19;19928;-77
2022/08/19 11:19:53;;;;;;;9.60;4.28;;;;;;;24.32;100.00;101581.88;7395298;19;20053;-77
2022/08/19 11:22:23;;;;;;;12.68;4.18;;;;;;;24.03;100.00;101576.50;7391380;19;20019;-78
2022/08/19 11:25:08;;;;;;;8.32;3.80;;;;;;;24.00;100.00;101579.28;7392747;19;20018;-77
2022/08/19 11:27:46;;;;;;;11.32;3.83;;;;;;;23.61;100.00;101576.00;7407278;19;20027;-74
2022/08/19 11:30:17;;;;;;;7.80;4.03;;;;;;;23.77;100.00;101572.84;7411952;19;20141;-79
2022/08/19 11:32:49;;;;;;;8.43;3.70;;;;;;;23.80;100.00;101575.44;7400362;19;20017;-77
2022/08/19 11:35:21;;;;;;;8.45;3.80;;;;;;;23.92;100.00;101562.59;7408108;19;20010;-77
2022/08/19 11:37:52;;;;;;;8.23;3.80;;;;;;;23.93;100.00;101569.66;7398346;19;20002;-77
2022/08/19 11:40:24;;;;;;;6.82;3.42;;;;;;;24.24;100.00;101574.97;7398842;19;20529;-78
2022/08/19 11:43:00;;;;;;;5.82;3.30;;;;;;;24.65;100.00;101574.53;7404694;19;20018;-78
2022/08/19 11:45:35;;;;;;;5.75;2.72;;;;;;;24.67;100.00;101577.16;7403022;19;20011;-79
2022/08/19 11:48:08;;;;;;;6.55;3.20;;;;;;;24.48;100.00;101568.84;7403597;19;20411;-77
2022/08/19 11:50:43;;;;;;;9.27;3.80;;;;;;;24.36;100.00;101564.75;7395870;19;20025;-78
2022/08/19 11:53:16;;;;;;;5.82;3.15;;;;;;;24.60;100.00;101570.25;7392094;19;20007;-77
2022/08/19 11:55:52;;;;;;;10.52;4.05;;;;;;;24.41;100.00;101573.53;7402902;19;20010;-76
2022/08/19 11:58:25;;;;;;;7.28;3.78;;;;;;;24.09;100.00;101574.50;7387804;19;20043;-76
2022/08/19 12:01:11;;;;;;;8.90;3.67;;;;;;;24.08;100.00;101577.25;7381504;19;20062;-77